createdAt,value
2022-12-22T00:02:00.373Z,87.70
2022-12-22T00:04:46.452Z,87.70
2022-12-22T00:07:32.504Z,87.60
2022-12-22T00:10:18.325Z,87.60
2022-12-22T00:13:04.449Z,87.40
2022-12-22T00:15:54.328Z,87.30
2022-12-22T00:18:40.167Z,87.30
2022-12-22T00:21:30.269Z,87.30
2022-12-22T00:24:17.184Z,87.10
2022-12-22T00:27:04.467Z,87.20
2022-12-22T00:29:59.804Z,87.20
2022-12-22T00:32:55.997Z,87.40
2022-12-22T00:35:44.158Z,87.50
2022-12-22T00:38:39.456Z,87.80
2022-12-22T00:41:25.301Z,87.80
2022-12-22T00:44:11.012Z,87.70
2022-12-22T00:46:59.467Z,87.80
2022-12-22T00:49:46.888Z,88.00
2022-12-22T00:52:33.871Z,88.00
2022-12-22T00:55:19.940Z,87.80
2022-12-22T00:58:05.838Z,87.90
2022-12-22T01:00:51.696Z,87.90
2022-12-22T01:03:37.826Z,88.00
2022-12-22T01:06:29.301Z,87.90
2022-12-22T01:09:15.326Z,87.90
2022-12-22T01:12:01.443Z,87.90
2022-12-22T01:14:47.661Z,87.60
2022-12-22T01:17:33.647Z,87.60
2022-12-22T01:20:19.705Z,87.70
2022-12-22T01:23:06.121Z,87.70
2022-12-22T01:25:53.523Z,87.90
2022-12-22T01:28:39.638Z,87.90
2022-12-22T01:31:48.945Z,87.80
2022-12-22T01:34:37.903Z,87.60
2022-12-22T01:37:26.410Z,87.60
2022-12-22T01:40:11.857Z,87.80
2022-12-22T01:42:57.930Z,87.80
2022-12-22T01:45:51.582Z,87.90
2022-12-22T01:48:48.455Z,87.90
2022-12-22T01:51:41.620Z,87.90
2022-12-22T01:54:29.722Z,87.90
2022-12-22T01:57:16.311Z,87.80
2022-12-22T02:00:02.921Z,88.00
2022-12-22T02:02:57.927Z,88.00
2022-12-22T02:05:43.989Z,88.00
2022-12-22T02:08:49.265Z,87.90
2022-12-22T02:12:08.851Z,87.80
2022-12-22T02:15:17.557Z,87.80
2022-12-22T02:18:25.769Z,87.60
2022-12-22T02:21:12.612Z,87.40
2022-12-22T02:24:43.294Z,87.80
2022-12-22T02:27:29.788Z,87.80
2022-12-22T02:30:23.022Z,87.70
2022-12-22T02:33:10.135Z,87.80
2022-12-22T02:36:28.963Z,87.80
2022-12-22T02:39:55.563Z,87.80
2022-12-22T02:43:03.836Z,87.50
2022-12-22T02:46:45.485Z,87.40
2022-12-22T02:49:47.674Z,87.40
2022-12-22T02:52:42.697Z,87.20
2022-12-22T02:55:29.677Z,87.20
2022-12-22T02:58:18.783Z,87.00
2022-12-22T03:01:04.825Z,87.10
2022-12-22T03:03:50.752Z,87.00
2022-12-22T03:06:36.691Z,86.80
2022-12-22T03:09:22.752Z,86.90
2022-12-22T03:12:09.007Z,87.10
2022-12-22T03:14:54.824Z,87.30
2022-12-22T03:17:40.753Z,87.10
2022-12-22T03:20:27.559Z,87.20
2022-12-22T03:23:13.816Z,87.30
2022-12-22T03:25:55.817Z,87.40
2022-12-22T03:28:27.034Z,87.60
2022-12-22T03:31:01.985Z,87.60
2022-12-22T03:33:30.801Z,87.20
2022-12-22T03:35:59.473Z,87.10
2022-12-22T03:38:27.560Z,87.10
2022-12-22T03:40:55.407Z,87.10
2022-12-22T03:43:41.170Z,87.00
2022-12-22T03:46:31.226Z,87.00
2022-12-22T03:49:10.716Z,87.00
2022-12-22T03:51:41.200Z,86.80
2022-12-22T03:54:09.940Z,87.10
2022-12-22T03:56:37.652Z,87.10
2022-12-22T03:59:05.739Z,87.00
2022-12-22T04:01:34.722Z,86.90
2022-12-22T04:04:01.935Z,87.10
2022-12-22T04:06:29.087Z,87.00
2022-12-22T04:08:56.324Z,86.90
2022-12-22T04:11:42.276Z,86.90
2022-12-22T04:14:09.362Z,87.00
2022-12-22T04:16:36.522Z,87.00
2022-12-22T04:19:04.142Z,87.10
2022-12-22T04:21:31.316Z,87.30
2022-12-22T04:23:58.723Z,87.30
2022-12-22T04:26:26.916Z,87.40
2022-12-22T04:28:54.808Z,87.40
2022-12-22T04:31:22.858Z,87.40
2022-12-22T04:33:50.796Z,87.80
2022-12-22T04:36:18.075Z,87.90
2022-12-22T04:38:45.526Z,87.80
2022-12-22T04:41:12.856Z,87.90
2022-12-22T04:43:40.322Z,87.80
2022-12-22T04:46:07.626Z,87.90
2022-12-22T04:48:34.847Z,87.80
2022-12-22T04:51:02.709Z,87.90
2022-12-22T04:53:31.701Z,87.80
2022-12-22T04:56:06.639Z,87.60
2022-12-22T04:58:35.026Z,87.30
2022-12-22T05:01:17.167Z,87.40
2022-12-22T05:03:44.755Z,87.60
2022-12-22T05:06:12.461Z,87.60
2022-12-22T05:08:39.715Z,87.50
2022-12-22T05:11:07.888Z,87.20
2022-12-22T05:13:35.073Z,87.30
2022-12-22T05:16:14.191Z,87.40
2022-12-22T05:18:45.198Z,87.30
2022-12-22T05:21:21.143Z,87.40
2022-12-22T05:23:49.726Z,87.40
2022-12-22T05:26:18.737Z,87.50
2022-12-22T05:28:48.049Z,87.60
2022-12-22T05:31:23.132Z,87.70
2022-12-22T05:33:50.779Z,87.60
2022-12-22T05:36:18.253Z,87.50
2022-12-22T05:38:45.548Z,87.40
2022-12-22T05:41:12.988Z,87.30
2022-12-22T05:43:40.382Z,87.20
2022-12-22T05:46:11.483Z,87.30
2022-12-22T05:48:40.330Z,87.30
2022-12-22T05:51:09.487Z,87.30
2022-12-22T05:53:37.968Z,87.30
2022-12-22T05:56:05.829Z,87.20
2022-12-22T05:58:33.356Z,87.10
2022-12-22T06:01:01.611Z,87.30
2022-12-22T06:03:29.485Z,87.40
2022-12-22T06:05:58.252Z,87.60
2022-12-22T06:08:26.403Z,87.30
2022-12-22T06:10:58.792Z,87.30
2022-12-22T06:13:26.629Z,87.40
2022-12-22T06:15:53.932Z,87.20
2022-12-22T06:18:21.219Z,87.10
2022-12-22T06:20:48.402Z,87.00
2022-12-22T06:23:15.545Z,87.10
2022-12-22T06:25:42.623Z,86.90
2022-12-22T06:28:09.729Z,86.60
2022-12-22T06:30:36.938Z,86.80
2022-12-22T06:33:04.000Z,87.10
2022-12-22T06:35:31.116Z,87.20
2022-12-22T06:37:58.301Z,87.30
2022-12-22T06:40:27.786Z,87.10
2022-12-22T06:43:10.792Z,86.70
2022-12-22T06:45:41.695Z,86.80
2022-12-22T06:48:10.980Z,87.10
2022-12-22T06:50:38.538Z,87.10
2022-12-22T06:53:07.372Z,87.10
2022-12-22T06:55:35.733Z,87.00
2022-12-22T06:58:03.239Z,87.30
2022-12-22T07:00:30.444Z,87.40
2022-12-22T07:02:57.962Z,87.30
2022-12-22T07:05:25.598Z,87.00
2022-12-22T07:07:53.455Z,86.80
2022-12-22T07:10:40.713Z,86.90
2022-12-22T07:13:19.721Z,86.90
2022-12-22T07:15:57.599Z,86.70
2022-12-22T07:18:33.150Z,86.90
2022-12-22T07:21:03.073Z,87.00
2022-12-22T07:23:31.044Z,86.90
2022-12-22T07:25:58.842Z,87.10
2022-12-22T07:28:26.020Z,87.20
2022-12-22T07:30:54.457Z,86.80
2022-12-22T07:33:21.795Z,86.50
2022-12-22T07:35:49.477Z,86.10
2022-12-22T07:38:16.518Z,85.90
2022-12-22T07:40:45.747Z,85.70
2022-12-22T07:43:15.069Z,86.00
2022-12-22T07:45:42.147Z,85.90
2022-12-22T07:48:29.833Z,86.20
2022-12-22T07:51:04.403Z,86.10
2022-12-22T07:53:33.962Z,86.20
2022-12-22T07:56:06.025Z,86.30
2022-12-22T07:58:33.650Z,86.40
2022-12-22T08:01:01.768Z,86.50
2022-12-22T08:03:29.476Z,86.10
2022-12-22T08:05:56.735Z,86.20
2022-12-22T08:08:23.901Z,86.20
2022-12-22T08:10:51.072Z,86.20
2022-12-22T08:13:18.245Z,86.00
2022-12-22T08:15:45.491Z,85.70
2022-12-22T08:18:12.784Z,85.90
2022-12-22T08:20:39.991Z,85.70
2022-12-22T08:23:07.063Z,85.50
2022-12-22T08:25:35.264Z,85.40
2022-12-22T08:28:14.613Z,85.80
2022-12-22T08:30:42.741Z,85.40
2022-12-22T08:33:11.716Z,85.30
2022-12-22T08:35:39.737Z,85.40
2022-12-22T08:38:15.607Z,85.50
2022-12-22T08:40:44.770Z,85.20
2022-12-22T08:43:14.922Z,85.20
2022-12-22T08:45:42.936Z,85.10
2022-12-22T08:48:12.277Z,85.00
2022-12-22T08:50:39.723Z,84.80
2022-12-22T08:53:18.800Z,84.90
2022-12-22T08:55:56.672Z,85.00
2022-12-22T08:58:23.823Z,85.20
2022-12-22T09:00:51.004Z,85.30
2022-12-22T09:03:18.297Z,85.20
2022-12-22T09:05:45.487Z,85.50
2022-12-22T09:08:12.673Z,85.60
2022-12-22T09:10:43.947Z,85.30
2022-12-22T09:13:11.128Z,84.70
2022-12-22T09:15:38.619Z,84.70
2022-12-22T09:18:05.831Z,84.90
2022-12-22T09:20:32.983Z,84.90
2022-12-22T09:23:00.884Z,84.80
2022-12-22T09:25:28.279Z,84.50
2022-12-22T09:27:55.450Z,84.20
2022-12-22T09:30:22.575Z,84.10
2022-12-22T09:32:49.814Z,83.90
2022-12-22T09:35:16.978Z,84.30
2022-12-22T09:37:44.152Z,84.00
2022-12-22T09:40:12.114Z,83.50
2022-12-22T09:42:39.405Z,83.50
2022-12-22T09:45:21.905Z,83.40
2022-12-22T09:47:53.770Z,82.90
2022-12-22T09:50:26.804Z,83.40
2022-12-22T09:53:01.782Z,83.30
2022-12-22T09:55:39.652Z,82.90
2022-12-22T09:58:28.044Z,82.60
2022-12-22T10:02:00.178Z,82.90
2022-12-22T10:04:30.080Z,82.80
2022-12-22T10:07:30.584Z,83.00
2022-12-22T10:10:12.610Z,82.60
2022-12-22T10:12:39.746Z,82.40
2022-12-22T10:15:15.442Z,82.20
2022-12-22T10:17:45.568Z,82.40
2022-12-22T10:20:25.441Z,81.80
2022-12-22T10:22:56.325Z,82.40
2022-12-22T10:28:38.892Z,82.10
2022-12-22T10:31:17.430Z,81.60
2022-12-22T10:33:47.911Z,81.20
2022-12-22T10:36:23.694Z,80.80
2022-12-22T10:39:07.667Z,81.60
2022-12-22T10:41:44.059Z,81.50
2022-12-22T10:44:16.741Z,81.60
2022-12-22T10:46:51.394Z,81.90
2022-12-22T10:49:24.150Z,81.00
2022-12-22T10:52:27.684Z,81.50
2022-12-22T10:55:25.879Z,80.70
2022-12-22T10:58:13.520Z,81.20
2022-12-22T11:00:41.660Z,81.60
2022-12-22T11:03:19.116Z,81.90
2022-12-22T11:05:52.148Z,81.60
2022-12-22T11:08:20.849Z,81.30
2022-12-22T11:10:53.650Z,81.50
2022-12-22T11:13:41.846Z,81.30
2022-12-22T11:16:43.873Z,80.50
2022-12-22T11:19:34.267Z,81.10
2022-12-22T11:22:13.383Z,81.20
2022-12-22T11:25:30.032Z,80.50
2022-12-22T11:28:26.145Z,80.80
2022-12-22T11:31:17.814Z,80.20
2022-12-22T11:34:04.641Z,79.40
2022-12-22T11:36:38.571Z,80.80
2022-12-22T11:39:18.569Z,80.80
2022-12-22T11:42:15.929Z,80.90
2022-12-22T11:45:42.713Z,81.60
2022-12-22T11:48:21.915Z,81.40
2022-12-22T11:51:11.323Z,80.70
2022-12-22T11:54:17.303Z,80.30
2022-12-22T11:57:05.597Z,80.10
2022-12-22T12:00:20.238Z,80.60
2022-12-22T12:03:29.515Z,80.40
2022-12-22T12:06:30.063Z,80.50
2022-12-22T12:09:38.295Z,80.40
2022-12-22T12:12:17.220Z,81.10
2022-12-22T12:15:11.416Z,80.50
2022-12-22T12:18:45.741Z,80.60
2022-12-22T12:21:44.474Z,80.30
2022-12-22T12:24:48.318Z,79.90
2022-12-22T12:27:33.372Z,80.40
2022-12-22T12:33:28.324Z,80.90
2022-12-22T12:36:01.522Z,80.40
2022-12-22T12:39:12.901Z,81.00
2022-12-22T12:42:09.036Z,81.00
2022-12-22T12:44:38.713Z,80.40
2022-12-22T12:47:27.908Z,80.10
2022-12-22T12:50:30.487Z,80.30
2022-12-22T12:53:08.429Z,80.30
2022-12-22T12:55:52.747Z,80.70
2022-12-22T12:58:53.233Z,81.10
2022-12-22T13:01:29.354Z,81.30
2022-12-22T13:04:05.332Z,81.80
2022-12-22T13:06:51.535Z,82.50
2022-12-22T13:12:40.025Z,83.40
2022-12-22T13:15:34.934Z,83.80
2022-12-22T13:18:23.821Z,84.10
2022-12-22T13:24:23.586Z,84.80
2022-12-22T13:26:47.545Z,84.80
2022-12-22T13:29:41.977Z,85.00
2022-12-22T13:32:33.883Z,85.20
2022-12-22T13:35:42.992Z,85.00
2022-12-22T13:38:31.586Z,85.20
2022-12-22T13:41:05.912Z,85.30
2022-12-22T13:43:33.682Z,85.60
2022-12-22T13:46:04.289Z,85.70
2022-12-22T13:48:48.690Z,85.80
2022-12-22T13:51:26.698Z,85.90
2022-12-22T13:54:11.964Z,86.00
2022-12-22T13:57:14.909Z,86.10
2022-12-22T13:59:45.499Z,86.10
2022-12-22T14:02:18.685Z,86.20
2022-12-22T14:05:16.345Z,86.10
2022-12-22T14:08:09.041Z,86.00
2022-12-22T14:10:49.269Z,85.80
2022-12-22T14:13:25.476Z,86.00
2022-12-22T14:16:08.014Z,86.00
2022-12-22T14:18:36.935Z,86.10
2022-12-22T14:21:18.965Z,86.30
2022-12-22T14:23:51.193Z,86.40
2022-12-22T14:26:27.276Z,86.40
2022-12-22T14:28:57.207Z,86.30
2022-12-22T14:31:24.569Z,86.30
2022-12-22T14:34:05.505Z,86.30
2022-12-22T14:36:41.903Z,86.40
2022-12-22T14:39:10.707Z,86.20
2022-12-22T14:42:04.708Z,86.30
2022-12-22T14:44:43.046Z,86.20
2022-12-22T14:47:17.104Z,86.10
2022-12-22T14:49:47.237Z,86.30
2022-12-22T14:52:51.047Z,86.20
2022-12-22T14:55:40.138Z,86.30
2022-12-22T14:58:23.885Z,86.20
2022-12-22T15:01:13.851Z,86.00
2022-12-22T15:03:41.904Z,86.00
2022-12-22T15:06:27.277Z,86.00
2022-12-22T15:09:13.682Z,85.80
2022-12-22T15:11:46.052Z,85.90
2022-12-22T15:14:20.741Z,86.00
2022-12-22T15:16:48.239Z,85.60
2022-12-22T15:19:18.822Z,85.70
2022-12-22T15:21:45.941Z,85.70
2022-12-22T15:24:16.887Z,85.30
2022-12-22T15:26:46.302Z,85.40
2022-12-22T15:29:14.331Z,85.30
2022-12-22T15:31:43.082Z,85.30
2022-12-22T15:34:25.229Z,85.10
2022-12-22T15:36:53.159Z,85.00
2022-12-22T15:39:22.434Z,85.20
2022-12-22T15:41:49.701Z,85.30
2022-12-22T15:44:17.352Z,85.30
2022-12-22T15:46:53.029Z,85.40
2022-12-22T15:49:24.732Z,85.50
2022-12-22T15:51:59.409Z,85.30
2022-12-22T15:54:28.541Z,84.90
2022-12-22T15:56:56.191Z,85.20
2022-12-22T15:59:27.117Z,85.30
2022-12-22T16:02:01.519Z,85.20
2022-12-22T16:04:30.108Z,85.40
2022-12-22T16:06:59.329Z,85.50
2022-12-22T16:09:32.513Z,85.80
2022-12-22T16:11:59.669Z,85.90
2022-12-22T16:14:26.993Z,86.30
2022-12-22T16:16:54.027Z,85.70
2022-12-22T16:19:21.186Z,85.80
2022-12-22T16:21:52.547Z,85.40
2022-12-22T16:24:32.718Z,85.20
2022-12-22T16:27:00.481Z,85.50
2022-12-22T16:29:28.020Z,85.30
2022-12-22T16:32:24.289Z,85.00
2022-12-22T16:34:51.978Z,85.10
2022-12-22T16:37:19.142Z,85.20
2022-12-22T16:39:47.455Z,85.20
2022-12-22T16:45:06.024Z,85.10
2022-12-22T16:47:36.089Z,85.20
2022-12-22T16:50:03.966Z,85.00
2022-12-22T16:52:39.224Z,84.90
2022-12-22T16:55:20.035Z,84.60
2022-12-22T16:57:48.144Z,84.60
2022-12-22T17:00:25.875Z,84.70
2022-12-22T17:03:26.834Z,84.50
2022-12-22T17:05:59.286Z,84.40
2022-12-22T17:08:36.965Z,84.40
2022-12-22T17:11:11.197Z,84.60
2022-12-22T17:13:39.470Z,84.50
2022-12-22T17:16:06.864Z,84.60
2022-12-22T17:18:36.036Z,84.50
2022-12-22T17:21:04.339Z,84.40
2022-12-22T17:23:41.083Z,84.90
2022-12-22T17:26:12.939Z,84.60
2022-12-22T17:28:40.707Z,84.70
2022-12-22T17:31:08.130Z,84.90
2022-12-22T17:33:36.603Z,85.10
2022-12-22T17:36:18.299Z,85.10
2022-12-22T17:39:15.496Z,85.10
2022-12-22T17:41:58.572Z,85.10
2022-12-22T17:44:59.160Z,85.40
2022-12-22T17:47:42.625Z,85.10
2022-12-22T17:50:44.806Z,85.10
2022-12-22T17:53:28.338Z,85.10
2022-12-22T17:56:09.022Z,85.00
2022-12-22T17:59:03.299Z,85.00
2022-12-22T18:01:39.443Z,84.90
2022-12-22T18:05:06.497Z,85.00
2022-12-22T18:07:51.283Z,85.20
2022-12-22T18:10:36.204Z,85.20
2022-12-22T18:13:22.636Z,85.30
2022-12-22T18:16:10.250Z,85.60
2022-12-22T18:18:46.106Z,85.90
2022-12-22T18:21:21.272Z,85.90
2022-12-22T18:24:02.543Z,85.90
2022-12-22T18:26:46.273Z,85.70
2022-12-22T18:29:37.601Z,85.80
2022-12-22T18:32:09.422Z,85.90
2022-12-22T18:35:01.623Z,85.90
2022-12-22T18:37:40.630Z,86.00
2022-12-22T18:40:35.300Z,85.80
2022-12-22T18:43:12.192Z,85.80
2022-12-22T18:45:59.460Z,85.70
2022-12-22T18:48:46.325Z,86.00
2022-12-22T18:51:26.804Z,85.90
2022-12-22T18:54:00.189Z,85.70
2022-12-22T18:56:38.014Z,85.90
2022-12-22T18:59:31.232Z,85.90
2022-12-22T19:02:23.688Z,86.00
2022-12-22T19:04:51.881Z,86.30
2022-12-22T19:07:22.839Z,86.40
2022-12-22T19:09:50.593Z,86.30
2022-12-22T19:12:23.260Z,86.30
2022-12-22T19:14:56.433Z,86.30
2022-12-22T19:17:28.970Z,86.40
2022-12-22T19:19:57.202Z,86.70
2022-12-22T19:22:24.691Z,86.70
2022-12-22T19:24:51.805Z,86.50
2022-12-22T19:27:25.206Z,86.50
2022-12-22T19:30:01.044Z,86.70
2022-12-22T19:32:40.110Z,86.60
2022-12-22T19:35:18.560Z,86.50
2022-12-22T19:37:47.647Z,86.50
2022-12-22T19:40:16.497Z,86.50
2022-12-22T19:42:47.661Z,86.50
2022-12-22T19:45:29.922Z,86.60
2022-12-22T19:47:57.957Z,86.40
2022-12-22T19:50:28.403Z,86.40
2022-12-22T19:52:58.755Z,86.30
2022-12-22T19:55:29.588Z,86.30
2022-12-22T19:57:58.629Z,86.10
2022-12-22T20:00:29.084Z,86.20
2022-12-22T20:02:58.122Z,86.30
2022-12-22T20:05:32.453Z,86.40
2022-12-22T20:08:08.616Z,86.40
2022-12-22T20:10:39.897Z,86.50
2022-12-22T20:13:21.777Z,86.60
2022-12-22T20:15:49.611Z,86.50
2022-12-22T20:18:23.480Z,86.70
2022-12-22T20:21:07.588Z,86.70
2022-12-22T20:23:37.661Z,86.70
2022-12-22T20:26:14.059Z,86.90
2022-12-22T20:28:41.407Z,86.80
2022-12-22T20:31:14.116Z,86.70
2022-12-22T20:33:41.661Z,86.70
2022-12-22T20:36:28.708Z,86.80
2022-12-22T20:38:59.848Z,86.80
2022-12-22T20:41:27.402Z,87.00
2022-12-22T20:43:54.590Z,87.00
2022-12-22T20:46:26.705Z,87.10
2022-12-22T20:49:03.289Z,87.40
2022-12-22T20:51:33.764Z,87.20
2022-12-22T20:54:01.405Z,87.30
2022-12-22T20:56:31.677Z,87.20
2022-12-22T20:59:10.234Z,87.10
2022-12-22T21:01:37.495Z,87.10
2022-12-22T21:04:04.953Z,87.10
2022-12-22T21:06:38.826Z,87.10
2022-12-22T21:09:06.316Z,87.10
2022-12-22T21:11:34.455Z,87.10
2022-12-22T21:14:01.586Z,87.20
2022-12-22T21:16:31.688Z,87.20
2022-12-22T21:18:59.168Z,87.30
2022-12-22T21:21:26.714Z,87.40
2022-12-22T21:23:53.778Z,87.40
2022-12-22T21:26:30.896Z,87.60
2022-12-22T21:29:00.380Z,87.60
2022-12-22T21:31:27.614Z,87.50
2022-12-22T21:33:54.726Z,87.30
2022-12-22T21:36:32.247Z,87.30
2022-12-22T21:39:05.795Z,87.10
2022-12-22T21:41:51.685Z,87.00
2022-12-22T21:44:18.936Z,87.00
2022-12-22T21:46:47.241Z,87.10
2022-12-22T21:49:19.934Z,87.10
2022-12-22T21:51:53.003Z,87.20
2022-12-22T21:54:22.652Z,87.20
2022-12-22T21:56:51.232Z,87.30
2022-12-22T21:59:18.375Z,87.40
2022-12-22T22:01:46.663Z,87.30
2022-12-22T22:04:14.355Z,87.20
2022-12-22T22:06:41.444Z,87.10
2022-12-22T22:09:08.568Z,87.10
2022-12-22T22:11:58.565Z,87.10
2022-12-22T22:14:26.962Z,87.10
2022-12-22T22:16:54.497Z,87.00
2022-12-22T22:19:27.865Z,86.70
2022-12-22T22:22:01.543Z,86.80
2022-12-22T22:24:31.114Z,86.80
2022-12-22T22:27:06.359Z,86.80
2022-12-22T22:29:33.586Z,86.80
2022-12-22T22:32:00.707Z,86.70
2022-12-22T22:34:27.921Z,86.80
2022-12-22T22:36:55.005Z,86.80
2022-12-22T22:39:23.326Z,86.90
2022-12-22T22:41:50.435Z,87.00
2022-12-22T22:44:17.537Z,87.10
2022-12-22T22:46:44.606Z,87.00
2022-12-22T22:49:11.751Z,86.90
2022-12-22T22:51:38.750Z,86.90
2022-12-22T22:54:06.144Z,87.00
2022-12-22T22:56:33.213Z,86.90
2022-12-22T22:59:00.372Z,86.90
2022-12-22T23:01:28.140Z,86.80
2022-12-22T23:03:55.380Z,86.90
2022-12-22T23:06:22.863Z,86.80
2022-12-22T23:08:50.411Z,86.80
2022-12-22T23:11:17.704Z,86.80
2022-12-22T23:13:45.509Z,86.70
2022-12-22T23:16:12.723Z,86.60
2022-12-22T23:18:41.151Z,86.50
2022-12-22T23:21:09.651Z,86.20
2022-12-22T23:23:37.308Z,86.10
2022-12-22T23:26:05.986Z,86.20
2022-12-22T23:28:34.404Z,86.00
2022-12-22T23:31:01.643Z,86.20
2022-12-22T23:33:31.856Z,86.20
2022-12-22T23:35:59.092Z,86.10
2022-12-22T23:38:26.448Z,85.90
2022-12-22T23:41:03.370Z,85.80
2022-12-22T23:43:31.003Z,85.30
2022-12-22T23:45:58.116Z,85.40
2022-12-22T23:48:25.570Z,85.20
2022-12-22T23:50:54.970Z,85.10
2022-12-22T23:53:23.028Z,85.20
2022-12-22T23:55:50.481Z,85.20
2022-12-22T23:58:18.093Z,85.20
